sensor_id;sensor_type;location;lat;lon;timestamp;pressure;altitude;pressure_sealevel;temperature;humidity
4346;BME280;2186;49.866;7.986;2022-09-29T00:02:18;98715.97;;;7.28;100.00
4346;BME280;2186;49.866;7.986;2022-09-29T00:04:44;98713.03;;;7.56;100.00
4346;BME280;2186;49.866;7.986;2022-09-29T00:07:11;98710.47;;;7.54;100.00
4346;BME280;2186;49.866;7.986;2022-09-29T00:09:37;98711.88;;;7.41;100.00
4346;BME280;2186;49.866;7.986;2022-09-29T00:12:03;98712.22;;;7.54;100.00
4346;BME280;2186;49.866;7.986;2022-09-29T00:14:30;98712.53;;;7.68;100.00
4346;BME280;2186;49.866;7.986;2022-09-29T00:16:56;98716.06;;;7.67;100.00
4346;BME280;2186;49.866;7.986;2022-09-29T00:19:23;98699.16;;;7.71;100.00
4346;BME280;2186;49.866;7.986;2022-09-29T00:21:50;98707.69;;;7.78;100.00
4346;BME280;2186;49.866;7.986;2022-09-29T00:24:17;98705.59;;;7.86;100.00
4346;BME280;2186;49.866;7.986;2022-09-29T00:26:43;98707.84;;;7.95;100.00
4346;BME280;2186;49.866;7.986;2022-09-29T00:29:11;98707.94;;;7.92;100.00
4346;BME280;2186;49.866;7.986;2022-09-29T00:31:38;98707.88;;;7.93;100.00
4346;BME280;2186;49.866;7.986;2022-09-29T00:34:04;98710.00;;;8.06;100.00
4346;BME280;2186;49.866;7.986;2022-09-29T00:36:31;98711.19;;;7.98;100.00
4346;BME280;2186;49.866;7.986;2022-09-29T00:38:58;98711.66;;;7.88;100.00
4346;BME280;2186;49.866;7.986;2022-09-29T00:41:28;98714.97;;;7.93;100.00
4346;BME280;2186;49.866;7.986;2022-09-29T00:54:36;98708.94;;;8.10;100.00
4346;BME280;2186;49.866;7.986;2022-09-29T00:57:05;98709.28;;;8.02;100.00
4346;BME280;2186;49.866;7.986;2022-09-29T00:59:46;98710.78;;;8.08;100.00
4346;BME280;2186;49.866;7.986;2022-09-29T01:02:17;98704.78;;;8.04;100.00
4346;BME280;2186;49.866;7.986;2022-09-29T01:04:46;98701.25;;;8.03;100.00
4346;BME280;2186;49.866;7.986;2022-09-29T01:07:13;98698.91;;;7.97;100.00
4346;BME280;2186;49.866;7.986;2022-09-29T01:09:42;98701.25;;;8.03;100.00
4346;BME280;2186;49.866;7.986;2022-09-29T01:12:08;98702.47;;;7.96;100.00
4346;BME280;2186;49.866;7.986;2022-09-29T01:14:36;98695.56;;;7.92;100.00
4346;BME280;2186;49.866;7.986;2022-09-29T01:17:04;98694.00;;;7.88;100.00
4346;BME280;2186;49.866;7.986;2022-09-29T01:33:33;98683.59;;;7.43;100.00
4346;BME280;2186;49.866;7.986;2022-09-29T01:41:37;98691.63;;;7.20;100.00
4346;BME280;2186;49.866;7.986;2022-09-29T01:46:52;98700.28;;;7.23;100.00
4346;BME280;2186;49.866;7.986;2022-09-29T01:49:21;98696.66;;;7.04;100.00
4346;BME280;2186;49.866;7.986;2022-09-29T01:51:53;98701.78;;;6.85;100.00
4346;BME280;2186;49.866;7.986;2022-09-29T01:55:46;98709.63;;;6.88;100.00
4346;BME280;2186;49.866;7.986;2022-09-29T01:57:52;98707.19;;;6.60;100.00
4346;BME280;2186;49.866;7.986;2022-09-29T02:00:20;98699.72;;;6.48;100.00
4346;BME280;2186;49.866;7.986;2022-09-29T02:03:10;98709.06;;;6.57;100.00
4346;BME280;2186;49.866;7.986;2022-09-29T02:05:44;98710.09;;;6.52;100.00
4346;BME280;2186;49.866;7.986;2022-09-29T02:08:16;98707.28;;;6.34;100.00
4346;BME280;2186;49.866;7.986;2022-09-29T02:11:07;98706.75;;;6.24;100.00
4346;BME280;2186;49.866;7.986;2022-09-29T02:13:38;98714.13;;;6.14;100.00
4346;BME280;2186;49.866;7.986;2022-09-29T02:16:08;98710.94;;;6.30;100.00
4346;BME280;2186;49.866;7.986;2022-09-29T02:18:46;98709.16;;;6.30;100.00
4346;BME280;2186;49.866;7.986;2022-09-29T02:21:14;98716.47;;;6.23;100.00
4346;BME280;2186;49.866;7.986;2022-09-29T02:23:40;98722.41;;;6.29;100.00
4346;BME280;2186;49.866;7.986;2022-09-29T02:26:08;98714.69;;;6.24;100.00
4346;BME280;2186;49.866;7.986;2022-09-29T02:28:36;98719.28;;;6.19;100.00
4346;BME280;2186;49.866;7.986;2022-09-29T02:31:02;98715.66;;;6.21;100.00
4346;BME280;2186;49.866;7.986;2022-09-29T02:33:29;98723.78;;;6.15;100.00
4346;BME280;2186;49.866;7.986;2022-09-29T02:38:55;98714.31;;;6.10;100.00
4346;BME280;2186;49.866;7.986;2022-09-29T02:41:49;98716.22;;;6.06;100.00
4346;BME280;2186;49.866;7.986;2022-09-29T02:52:34;98727.09;;;5.71;100.00
4346;BME280;2186;49.866;7.986;2022-09-29T02:57:56;98730.06;;;5.86;100.00
4346;BME280;2186;49.866;7.986;2022-09-29T03:00:25;98726.91;;;5.75;100.00
4346;BME280;2186;49.866;7.986;2022-09-29T03:02:52;98726.16;;;5.72;100.00
4346;BME280;2186;49.866;7.986;2022-09-29T03:05:20;98727.53;;;5.83;100.00
4346;BME280;2186;49.866;7.986;2022-09-29T03:07:48;98723.84;;;5.87;100.00
4346;BME280;2186;49.866;7.986;2022-09-29T03:10:15;98719.91;;;6.01;100.00
4346;BME280;2186;49.866;7.986;2022-09-29T03:12:43;98722.31;;;5.82;100.00
4346;BME280;2186;49.866;7.986;2022-09-29T03:15:10;98719.91;;;5.76;100.00
4346;BME280;2186;49.866;7.986;2022-09-29T03:17:38;98721.75;;;5.72;100.00
4346;BME280;2186;49.866;7.986;2022-09-29T03:20:06;98722.78;;;5.68;100.00
4346;BME280;2186;49.866;7.986;2022-09-29T03:22:33;98728.28;;;5.62;100.00
4346;BME280;2186;49.866;7.986;2022-09-29T03:25:00;98722.56;;;5.48;100.00
4346;BME280;2186;49.866;7.986;2022-09-29T03:27:26;98729.09;;;5.38;100.00
4346;BME280;2186;49.866;7.986;2022-09-29T03:29:52;98730.81;;;5.39;100.00
4346;BME280;2186;49.866;7.986;2022-09-29T03:32:19;98726.06;;;5.50;100.00
4346;BME280;2186;49.866;7.986;2022-09-29T03:34:45;98722.94;;;5.63;100.00
4346;BME280;2186;49.866;7.986;2022-09-29T03:37:12;98722.22;;;5.58;100.00
4346;BME280;2186;49.866;7.986;2022-09-29T03:39:38;98718.09;;;5.51;100.00
4346;BME280;2186;49.866;7.986;2022-09-29T03:42:05;98719.91;;;5.49;100.00
4346;BME280;2186;49.866;7.986;2022-09-29T03:44:31;98716.38;;;5.50;100.00
4346;BME280;2186;49.866;7.986;2022-09-29T03:46:57;98717.41;;;5.45;100.00
4346;BME280;2186;49.866;7.986;2022-09-29T03:49:24;98716.56;;;5.44;100.00
4346;BME280;2186;49.866;7.986;2022-09-29T03:51:50;98720.00;;;5.46;100.00
4346;BME280;2186;49.866;7.986;2022-09-29T03:54:17;98723.03;;;5.60;100.00
4346;BME280;2186;49.866;7.986;2022-09-29T03:56:44;98721.88;;;5.43;100.00
4346;BME280;2186;49.866;7.986;2022-09-29T03:59:10;98722.78;;;5.68;100.00
4346;BME280;2186;49.866;7.986;2022-09-29T04:01:37;98725.16;;;5.76;100.00
4346;BME280;2186;49.866;7.986;2022-09-29T04:04:04;98738.66;;;5.67;100.00
4346;BME280;2186;49.866;7.986;2022-09-29T04:06:32;98738.19;;;5.54;100.00
4346;BME280;2186;49.866;7.986;2022-09-29T04:08:59;98737.84;;;5.64;100.00
4346;BME280;2186;49.866;7.986;2022-09-29T04:11:26;98749.75;;;5.76;100.00
4346;BME280;2186;49.866;7.986;2022-09-29T04:13:53;98746.56;;;5.67;100.00
4346;BME280;2186;49.866;7.986;2022-09-29T04:16:19;98745.84;;;5.61;100.00
4346;BME280;2186;49.866;7.986;2022-09-29T04:18:46;98758.38;;;5.55;100.00
4346;BME280;2186;49.866;7.986;2022-09-29T04:21:12;98761.88;;;5.55;100.00
4346;BME280;2186;49.866;7.986;2022-09-29T04:23:38;98769.81;;;5.54;100.00
4346;BME280;2186;49.866;7.986;2022-09-29T04:26:05;98770.13;;;5.45;100.00
4346;BME280;2186;49.866;7.986;2022-09-29T04:28:32;98765.13;;;5.37;100.00
4346;BME280;2186;49.866;7.986;2022-09-29T04:31:00;98759.97;;;5.32;100.00
4346;BME280;2186;49.866;7.986;2022-09-29T04:33:26;98757.78;;;5.19;100.00
4346;BME280;2186;49.866;7.986;2022-09-29T04:35:56;98751.75;;;5.15;100.00
4346;BME280;2186;49.866;7.986;2022-09-29T04:38:23;98753.66;;;5.38;100.00
4346;BME280;2186;49.866;7.986;2022-09-29T04:40:49;98755.56;;;5.33;100.00
4346;BME280;2186;49.866;7.986;2022-09-29T04:43:15;98751.72;;;5.43;100.00
4346;BME280;2186;49.866;7.986;2022-09-29T04:45:42;98758.38;;;5.55;100.00
4346;BME280;2186;49.866;7.986;2022-09-29T04:48:09;98755.16;;;5.45;100.00
4346;BME280;2186;49.866;7.986;2022-09-29T04:50:35;98757.72;;;5.48;100.00
4346;BME280;2186;49.866;7.986;2022-09-29T04:53:01;98756.84;;;5.74;100.00
4346;BME280;2186;49.866;7.986;2022-09-29T04:55:28;98758.56;;;5.75;100.00
4346;BME280;2186;49.866;7.986;2022-09-29T04:57:54;98757.75;;;5.73;100.00
4346;BME280;2186;49.866;7.986;2022-09-29T05:00:20;98754.47;;;5.67;100.00
4346;BME280;2186;49.866;7.986;2022-09-29T05:02:47;98754.53;;;5.65;100.00
4346;BME280;2186;49.866;7.986;2022-09-29T05:05:15;98758.03;;;5.65;100.00
4346;BME280;2186;49.866;7.986;2022-09-29T05:07:42;98767.66;;;5.67;100.00
4346;BME280;2186;49.866;7.986;2022-09-29T05:10:09;98771.06;;;5.97;100.00
4346;BME280;2186;49.866;7.986;2022-09-29T05:12:36;98770.56;;;5.84;100.00
4346;BME280;2186;49.866;7.986;2022-09-29T05:15:02;98769.03;;;5.78;100.00
4346;BME280;2186;49.866;7.986;2022-09-29T05:17:30;98776.75;;;5.83;100.00
4346;BME280;2186;49.866;7.986;2022-09-29T05:19:56;98769.06;;;5.77;100.00
4346;BME280;2186;49.866;7.986;2022-09-29T05:22:22;98784.16;;;5.72;100.00
4346;BME280;2186;49.866;7.986;2022-09-29T05:24:51;98776.59;;;5.61;100.00
4346;BME280;2186;49.866;7.986;2022-09-29T05:27:18;98783.56;;;5.63;100.00
4346;BME280;2186;49.866;7.986;2022-09-29T05:29:45;98778.59;;;5.54;100.00
4346;BME280;2186;49.866;7.986;2022-09-29T05:32:12;98796.50;;;5.43;100.00
4346;BME280;2186;49.866;7.986;2022-09-29T05:34:39;98795.31;;;5.53;100.00
4346;BME280;2186;49.866;7.986;2022-09-29T05:37:06;98794.63;;;5.48;100.00
4346;BME280;2186;49.866;7.986;2022-09-29T05:39:32;98793.69;;;5.49;100.00
4346;BME280;2186;49.866;7.986;2022-09-29T05:42:00;98796.78;;;5.34;100.00
4346;BME280;2186;49.866;7.986;2022-09-29T05:44:27;98804.41;;;5.43;100.00
4346;BME280;2186;49.866;7.986;2022-09-29T05:46:54;98805.16;;;5.48;100.00
4346;BME280;2186;49.866;7.986;2022-09-29T05:49:20;98813.88;;;5.50;100.00
4346;BME280;2186;49.866;7.986;2022-09-29T05:51:47;98815.94;;;5.67;100.00
4346;BME280;2186;49.866;7.986;2022-09-29T05:54:13;98815.72;;;5.47;100.00
4346;BME280;2186;49.866;7.986;2022-09-29T05:56:39;98811.72;;;5.63;100.00
4346;BME280;2186;49.866;7.986;2022-09-29T05:59:10;98816.47;;;5.78;100.00
4346;BME280;2186;49.866;7.986;2022-09-29T06:01:37;98811.56;;;5.94;100.00
4346;BME280;2186;49.866;7.986;2022-09-29T06:04:04;98808.34;;;5.84;100.00
4346;BME280;2186;49.866;7.986;2022-09-29T06:06:30;98814.84;;;6.01;100.00
4346;BME280;2186;49.866;7.986;2022-09-29T06:08:57;98813.53;;;6.14;100.00
4346;BME280;2186;49.866;7.986;2022-09-29T06:11:26;98811.38;;;6.25;100.00
4346;BME280;2186;49.866;7.986;2022-09-29T06:13:54;98802.78;;;6.20;100.00
4346;BME280;2186;49.866;7.986;2022-09-29T06:16:25;98812.03;;;6.32;100.00
4346;BME280;2186;49.866;7.986;2022-09-29T06:18:52;98804.06;;;6.08;100.00
4346;BME280;2186;49.866;7.986;2022-09-29T06:21:21;98804.50;;;6.21;100.00
4346;BME280;2186;49.866;7.986;2022-09-29T06:23:50;98804.38;;;6.24;100.00
4346;BME280;2186;49.866;7.986;2022-09-29T06:26:18;98807.88;;;6.24;100.00
4346;BME280;2186;49.866;7.986;2022-09-29T06:28:49;98810.84;;;6.40;100.00
4346;BME280;2186;49.866;7.986;2022-09-29T06:31:19;98801.13;;;6.41;100.00
4346;BME280;2186;49.866;7.986;2022-09-29T06:33:46;98812.34;;;6.47;100.00
4346;BME280;2186;49.866;7.986;2022-09-29T06:36:19;98821.47;;;6.87;100.00
4346;BME280;2186;49.866;7.986;2022-09-29T06:39:07;98818.81;;;6.87;100.00
4346;BME280;2186;49.866;7.986;2022-09-29T06:41:34;98816.00;;;6.92;100.00
4346;BME280;2186;49.866;7.986;2022-09-29T06:44:01;98819.50;;;6.92;100.00
4346;BME280;2186;49.866;7.986;2022-09-29T06:46:27;98824.25;;;7.06;100.00
4346;BME280;2186;49.866;7.986;2022-09-29T06:48:54;98824.78;;;6.92;100.00
4346;BME280;2186;49.866;7.986;2022-09-29T06:51:22;98827.16;;;7.00;100.00
4346;BME280;2186;49.866;7.986;2022-09-29T06:53:53;98825.13;;;7.06;100.00
4346;BME280;2186;49.866;7.986;2022-09-29T06:56:33;98830.69;;;7.22;100.00
4346;BME280;2186;49.866;7.986;2022-09-29T06:59:00;98831.00;;;7.36;100.00
4346;BME280;2186;49.866;7.986;2022-09-29T07:01:26;98823.88;;;7.38;100.00
4346;BME280;2186;49.866;7.986;2022-09-29T07:03:53;98828.41;;;7.35;100.00
4346;BME280;2186;49.866;7.986;2022-09-29T07:06:19;98822.47;;;7.73;100.00
4346;BME280;2186;49.866;7.986;2022-09-29T07:08:46;98826.34;;;8.07;100.00
4346;BME280;2186;49.866;7.986;2022-09-29T07:11:13;98823.53;;;8.32;100.00
4346;BME280;2186;49.866;7.986;2022-09-29T07:13:40;98825.13;;;8.16;100.00
4346;BME280;2186;49.866;7.986;2022-09-29T07:16:11;98829.47;;;8.17;100.00
4346;BME280;2186;49.866;7.986;2022-09-29T07:18:39;98826.75;;;8.40;100.00
4346;BME280;2186;49.866;7.986;2022-09-29T07:21:09;98822.09;;;9.05;100.00
4346;BME280;2186;49.866;7.986;2022-09-29T07:23:37;98827.19;;;8.70;100.00
4346;BME280;2186;49.866;7.986;2022-09-29T07:26:05;98826.31;;;8.70;100.00
4346;BME280;2186;49.866;7.986;2022-09-29T07:28:32;98835.34;;;8.45;100.00
4346;BME280;2186;49.866;7.986;2022-09-29T07:31:08;98828.59;;;8.58;100.00
4346;BME280;2186;49.866;7.986;2022-09-29T07:33:44;98831.50;;;8.52;100.00
4346;BME280;2186;49.866;7.986;2022-09-29T07:36:12;98844.50;;;8.38;100.00
4346;BME280;2186;49.866;7.986;2022-09-29T07:38:39;98849.72;;;8.40;100.00
4346;BME280;2186;49.866;7.986;2022-09-29T07:41:08;98848.72;;;8.42;100.00
4346;BME280;2186;49.866;7.986;2022-09-29T07:43:36;98845.91;;;8.86;100.00
4346;BME280;2186;49.866;7.986;2022-09-29T07:46:04;98849.25;;;9.10;100.00
4346;BME280;2186;49.866;7.986;2022-09-29T07:48:31;98846.97;;;8.82;100.00
4346;BME280;2186;49.866;7.986;2022-09-29T07:51:15;98853.69;;;9.09;100.00
4346;BME280;2186;49.866;7.986;2022-09-29T07:53:42;98857.81;;;8.96;100.00
4346;BME280;2186;49.866;7.986;2022-09-29T07:56:14;98856.59;;;9.03;100.00
4346;BME280;2186;49.866;7.986;2022-09-29T07:58:43;98858.31;;;9.04;100.00
4346;BME280;2186;49.866;7.986;2022-09-29T08:01:11;98858.78;;;9.33;100.00
4346;BME280;2186;49.866;7.986;2022-09-29T08:03:40;98860.06;;;9.43;100.00
4346;BME280;2186;49.866;7.986;2022-09-29T08:06:08;98867.44;;;9.17;100.00
4346;BME280;2186;49.866;7.986;2022-09-29T08:08:38;98871.19;;;9.32;100.00
4346;BME280;2186;49.866;7.986;2022-09-29T08:11:11;98867.16;;;9.05;100.00
4346;BME280;2186;49.866;7.986;2022-09-29T08:13:53;98869.88;;;9.78;100.00
4346;BME280;2186;49.866;7.986;2022-09-29T08:16:20;98866.00;;;9.10;100.00
4346;BME280;2186;49.866;7.986;2022-09-29T08:18:46;98866.78;;;9.12;100.00
4346;BME280;2186;49.866;7.986;2022-09-29T08:21:13;98863.84;;;9.56;100.00
4346;BME280;2186;49.866;7.986;2022-09-29T08:23:41;98865.09;;;9.49;100.00
4346;BME280;2186;49.866;7.986;2022-09-29T08:26:11;98871.22;;;9.68;100.00
4346;BME280;2186;49.866;7.986;2022-09-29T08:28:40;98869.94;;;9.77;100.00
4346;BME280;2186;49.866;7.986;2022-09-29T08:31:18;98873.88;;;9.87;100.00
4346;BME280;2186;49.866;7.986;2022-09-29T08:33:49;98873.81;;;9.89;100.00
4346;BME280;2186;49.866;7.986;2022-09-29T08:36:17;98870.66;;;10.17;100.00
4346;BME280;2186;49.866;7.986;2022-09-29T08:44:16;98880.19;;;10.21;100.00
4346;BME280;2186;49.866;7.986;2022-09-29T08:47:07;98881.94;;;10.39;100.00
4346;BME280;2186;49.866;7.986;2022-09-29T08:49:47;98884.13;;;10.12;100.00
4346;BME280;2186;49.866;7.986;2022-09-29T08:52:29;98882.16;;;10.52;100.00
4346;BME280;2186;49.866;7.986;2022-09-29T08:55:24;98893.56;;;10.36;100.00
4346;BME280;2186;49.866;7.986;2022-09-29T08:57:57;98892.78;;;10.52;100.00
4346;BME280;2186;49.866;7.986;2022-09-29T09:00:41;98887.47;;;10.52;100.00
4346;BME280;2186;49.866;7.986;2022-09-29T09:03:17;98896.31;;;11.20;100.00
4346;BME280;2186;49.866;7.986;2022-09-29T09:09:06;98886.47;;;10.72;100.00
4346;BME280;2186;49.866;7.986;2022-09-29T09:14:59;98890.88;;;11.39;100.00
4346;BME280;2186;49.866;7.986;2022-09-29T09:17:49;98896.69;;;11.30;100.00
4346;BME280;2186;49.866;7.986;2022-09-29T09:20:29;98904.97;;;11.56;100.00
4346;BME280;2186;49.866;7.986;2022-09-29T09:22:58;98902.25;;;12.05;100.00
4346;BME280;2186;49.866;7.986;2022-09-29T09:25:34;98901.00;;;11.64;97.78
4346;BME280;2186;49.866;7.986;2022-09-29T09:28:15;98901.06;;;12.11;97.17
4346;BME280;2186;49.866;7.986;2022-09-29T09:33:20;98900.75;;;12.31;96.27
4346;BME280;2186;49.866;7.986;2022-09-29T09:36:08;98892.59;;;12.19;96.53
4346;BME280;2186;49.866;7.986;2022-09-29T09:41:29;98893.66;;;12.46;95.82
4346;BME280;2186;49.866;7.986;2022-09-29T09:44:28;98896.28;;;12.48;95.17
4346;BME280;2186;49.866;7.986;2022-09-29T09:47:02;98899.84;;;12.62;96.20
4346;BME280;2186;49.866;7.986;2022-09-29T09:49:36;98899.03;;;12.90;94.63
4346;BME280;2186;49.866;7.986;2022-09-29T09:54:58;98896.16;;;12.79;94.21
4346;BME280;2186;49.866;7.986;2022-09-29T10:00:16;98902.28;;;12.95;93.68
4346;BME280;2186;49.866;7.986;2022-09-29T10:02:51;98906.47;;;12.55;95.47
4346;BME280;2186;49.866;7.986;2022-09-29T10:05:40;98908.03;;;12.73;94.97
4346;BME280;2186;49.866;7.986;2022-09-29T10:08:17;98901.53;;;13.08;94.34
4346;BME280;2186;49.866;7.986;2022-09-29T10:10:45;98896.66;;;13.00;93.80
4346;BME280;2186;49.866;7.986;2022-09-29T10:13:25;98897.69;;;12.83;95.86
4346;BME280;2186;49.866;7.986;2022-09-29T10:18:39;98910.25;;;13.40;93.95
4346;BME280;2186;49.866;7.986;2022-09-29T10:23:58;98905.47;;;13.16;92.69
4346;BME280;2186;49.866;7.986;2022-09-29T10:26:37;98909.13;;;13.99;91.49
4346;BME280;2186;49.866;7.986;2022-09-29T10:29:24;98909.31;;;13.96;90.61
4346;BME280;2186;49.866;7.986;2022-09-29T10:32:12;98910.22;;;14.09;89.80
4346;BME280;2186;49.866;7.986;2022-09-29T10:34:41;98915.41;;;13.57;88.78
4346;BME280;2186;49.866;7.986;2022-09-29T10:37:25;98919.22;;;13.39;90.54
4346;BME280;2186;49.866;7.986;2022-09-29T10:42:41;98916.06;;;13.46;90.32
4346;BME280;2186;49.866;7.986;2022-09-29T10:50:31;98912.63;;;13.73;89.33
4346;BME280;2186;49.866;7.986;2022-09-29T10:53:05;98902.97;;;13.70;89.54
4346;BME280;2186;49.866;7.986;2022-09-29T10:55:50;98911.56;;;13.75;88.69
4346;BME280;2186;49.866;7.986;2022-09-29T10:59:34;98915.28;;;14.14;87.45
4346;BME280;2186;49.866;7.986;2022-09-29T11:01:49;98907.59;;;13.95;86.34
4346;BME280;2186;49.866;7.986;2022-09-29T11:04:23;98905.91;;;14.21;85.51
4346;BME280;2186;49.866;7.986;2022-09-29T11:06:51;98906.75;;;14.21;86.09
4346;BME280;2186;49.866;7.986;2022-09-29T11:14:38;98900.25;;;15.05;84.14
4346;BME280;2186;49.866;7.986;2022-09-29T11:17:22;98901.41;;;14.75;84.53
4346;BME280;2186;49.866;7.986;2022-09-29T11:19:51;98913.75;;;15.03;84.55
4346;BME280;2186;49.866;7.986;2022-09-29T11:30:45;98912.03;;;15.28;81.99
4346;BME280;2186;49.866;7.986;2022-09-29T11:33:32;98914.94;;;15.12;82.75
4346;BME280;2186;49.866;7.986;2022-09-29T11:38:55;98913.22;;;15.24;81.48
4346;BME280;2186;49.866;7.986;2022-09-29T11:42:08;98914.63;;;15.67;79.70
4346;BME280;2186;49.866;7.986;2022-09-29T11:44:56;98914.81;;;15.77;79.71
4346;BME280;2186;49.866;7.986;2022-09-29T11:47:42;98915.16;;;15.60;79.30
4346;BME280;2186;49.866;7.986;2022-09-29T11:53:25;98913.13;;;15.76;78.57
4346;BME280;2186;49.866;7.986;2022-09-29T12:00:53;98911.06;;;15.16;80.06
4346;BME280;2186;49.866;7.986;2022-09-29T12:03:39;98913.00;;;15.14;80.87
4346;BME280;2186;49.866;7.986;2022-09-29T12:12:07;98910.84;;;15.32;80.23
4346;BME280;2186;49.866;7.986;2022-09-29T12:17:44;98905.59;;;15.43;80.11
4346;BME280;2186;49.866;7.986;2022-09-29T12:20:28;98903.13;;;15.78;80.57
4346;BME280;2186;49.866;7.986;2022-09-29T12:22:58;98898.03;;;15.37;80.81
4346;BME280;2186;49.866;7.986;2022-09-29T12:25:28;98899.41;;;15.43;81.39
4346;BME280;2186;49.866;7.986;2022-09-29T12:28:00;98903.44;;;15.48;81.24
4346;BME280;2186;49.866;7.986;2022-09-29T12:30:31;98907.88;;;15.49;81.93
4346;BME280;2186;49.866;7.986;2022-09-29T12:33:06;98901.75;;;15.34;81.25
4346;BME280;2186;49.866;7.986;2022-09-29T12:38:19;98899.38;;;15.81;78.50
4346;BME280;2186;49.866;7.986;2022-09-29T12:41:09;98894.78;;;15.45;79.71
4346;BME280;2186;49.866;7.986;2022-09-29T12:43:59;98901.63;;;15.74;78.88
4346;BME280;2186;49.866;7.986;2022-09-29T12:46:34;98891.69;;;15.00;79.13
4346;BME280;2186;49.866;7.986;2022-09-29T12:51:45;98894.44;;;15.75;78.03
4346;BME280;2186;49.866;7.986;2022-09-29T12:57:10;98894.56;;;15.60;75.13
4346;BME280;2186;49.866;7.986;2022-09-29T12:59:56;98895.00;;;15.54;73.85
4346;BME280;2186;49.866;7.986;2022-09-29T13:03:03;98894.28;;;15.27;74.04
4346;BME280;2186;49.866;7.986;2022-09-29T13:11:24;98895.88;;;16.04;74.09
4346;BME280;2186;49.866;7.986;2022-09-29T13:16:55;98907.63;;;16.14;73.65
4346;BME280;2186;49.866;7.986;2022-09-29T13:25:20;98904.31;;;15.61;75.12
4346;BME280;2186;49.866;7.986;2022-09-29T13:27:50;98901.97;;;15.69;74.69
4346;BME280;2186;49.866;7.986;2022-09-29T13:30:19;98894.25;;;15.65;74.83
4346;BME280;2186;49.866;7.986;2022-09-29T13:33:23;98901.81;;;15.84;73.00
4346;BME280;2186;49.866;7.986;2022-09-29T13:35:51;98904.06;;;15.90;71.01
4346;BME280;2186;49.866;7.986;2022-09-29T13:38:23;98903.22;;;16.13;72.76
4346;BME280;2186;49.866;7.986;2022-09-29T13:41:31;98911.63;;;16.09;71.02
4346;BME280;2186;49.866;7.986;2022-09-29T13:44:04;98903.63;;;15.96;70.98
4346;BME280;2186;49.866;7.986;2022-09-29T13:59:24;98923.84;;;16.00;73.55
4346;BME280;2186;49.866;7.986;2022-09-29T14:01:51;98922.72;;;16.15;71.07
4346;BME280;2186;49.866;7.986;2022-09-29T14:07:33;98930.81;;;16.39;71.30
4346;BME280;2186;49.866;7.986;2022-09-29T14:10:15;98933.63;;;15.88;71.80
4346;BME280;2186;49.866;7.986;2022-09-29T14:12:46;98941.69;;;16.25;71.41
4346;BME280;2186;49.866;7.986;2022-09-29T14:15:19;98936.97;;;15.92;71.91
4346;BME280;2186;49.866;7.986;2022-09-29T14:17:56;98940.38;;;16.30;71.60
4346;BME280;2186;49.866;7.986;2022-09-29T14:20:33;98934.22;;;16.17;72.96
4346;BME280;2186;49.866;7.986;2022-09-29T14:23:04;98938.34;;;15.97;71.94
4346;BME280;2186;49.866;7.986;2022-09-29T14:25:47;98934.06;;;15.95;73.02
4346;BME280;2186;49.866;7.986;2022-09-29T14:28:19;98945.91;;;15.80;72.79
4346;BME280;2186;49.866;7.986;2022-09-29T14:30:50;98938.78;;;15.91;72.07
4346;BME280;2186;49.866;7.986;2022-09-29T14:33:36;98952.19;;;16.28;71.61
4346;BME280;2186;49.866;7.986;2022-09-29T14:36:12;98953.19;;;15.78;72.41
4346;BME280;2186;49.866;7.986;2022-09-29T14:38:40;98948.69;;;15.65;73.19
4346;BME280;2186;49.866;7.986;2022-09-29T14:43:57;98961.22;;;15.90;78.45
4346;BME280;2186;49.866;7.986;2022-09-29T14:58:13;98985.28;;;14.47;79.92
4346;BME280;2186;49.866;7.986;2022-09-29T15:03:16;98996.91;;;14.61;80.17
4346;BME280;2186;49.866;7.986;2022-09-29T15:06:10;98994.16;;;14.75;80.59
4346;BME280;2186;49.866;7.986;2022-09-29T15:08:37;98991.69;;;14.72;80.07
4346;BME280;2186;49.866;7.986;2022-09-29T15:11:29;98992.03;;;14.80;80.18
4346;BME280;2186;49.866;7.986;2022-09-29T15:13:57;98994.56;;;14.96;79.72
4346;BME280;2186;49.866;7.986;2022-09-29T15:16:38;98991.94;;;14.81;79.98
4346;BME280;2186;49.866;7.986;2022-09-29T15:25:22;99003.16;;;14.74;79.39
4346;BME280;2186;49.866;7.986;2022-09-29T15:27:55;98996.31;;;14.70;80.38
4346;BME280;2186;49.866;7.986;2022-09-29T15:30:23;99001.50;;;14.59;80.37
4346;BME280;2186;49.866;7.986;2022-09-29T15:32:51;98995.78;;;14.36;80.52
4346;BME280;2186;49.866;7.986;2022-09-29T15:35:22;98994.38;;;14.31;81.07
4346;BME280;2186;49.866;7.986;2022-09-29T15:40:18;99004.25;;;14.16;81.95
4346;BME280;2186;49.866;7.986;2022-09-29T15:42:46;99001.28;;;14.06;83.58
4346;BME280;2186;49.866;7.986;2022-09-29T15:45:19;99003.97;;;14.06;84.62
4346;BME280;2186;49.866;7.986;2022-09-29T15:47:59;99006.06;;;14.01;85.57
4346;BME280;2186;49.866;7.986;2022-09-29T15:50:27;99012.66;;;13.96;86.04
4346;BME280;2186;49.866;7.986;2022-09-29T15:52:58;99014.88;;;13.89;86.59
4346;BME280;2186;49.866;7.986;2022-09-29T15:55:30;99005.88;;;13.61;87.95
4346;BME280;2186;49.866;7.986;2022-09-29T15:57:57;99013.34;;;13.71;87.79
4346;BME280;2186;49.866;7.986;2022-09-29T16:03:15;99019.59;;;13.41;89.42
4346;BME280;2186;49.866;7.986;2022-09-29T16:06:01;99029.59;;;13.38;89.66
4346;BME280;2186;49.866;7.986;2022-09-29T16:08:30;99014.59;;;13.21;89.94
4346;BME280;2186;49.866;7.986;2022-09-29T16:11:00;99023.78;;;13.15;89.68
4346;BME280;2186;49.866;7.986;2022-09-29T16:13:30;99029.84;;;13.19;89.85
4346;BME280;2186;49.866;7.986;2022-09-29T16:16:09;99026.31;;;13.18;91.01
4346;BME280;2186;49.866;7.986;2022-09-29T16:18:44;99031.88;;;13.14;90.78
4346;BME280;2186;49.866;7.986;2022-09-29T16:21:19;99042.06;;;13.23;90.13
4346;BME280;2186;49.866;7.986;2022-09-29T16:23:49;99039.03;;;13.13;90.71
4346;BME280;2186;49.866;7.986;2022-09-29T16:26:38;99043.75;;;13.24;91.28
4346;BME280;2186;49.866;7.986;2022-09-29T16:31:36;99061.41;;;13.11;92.39
4346;BME280;2186;49.866;7.986;2022-09-29T16:34:30;99055.75;;;13.17;91.89
4346;BME280;2186;49.866;7.986;2022-09-29T16:39:29;99061.72;;;12.90;92.88
4346;BME280;2186;49.866;7.986;2022-09-29T16:42:02;99065.84;;;12.96;93.06
4346;BME280;2186;49.866;7.986;2022-09-29T16:44:39;99065.28;;;12.75;94.30
4346;BME280;2186;49.866;7.986;2022-09-29T16:49:37;99061.41;;;12.65;95.09
4346;BME280;2186;49.866;7.986;2022-09-29T16:54:43;99082.47;;;12.54;95.60
4346;BME280;2186;49.866;7.986;2022-09-29T16:57:20;99074.06;;;12.61;96.64
4346;BME280;2186;49.866;7.986;2022-09-29T16:59:59;99080.75;;;12.53;96.33
4346;BME280;2186;49.866;7.986;2022-09-29T17:02:26;99084.59;;;12.47;96.25
4346;BME280;2186;49.866;7.986;2022-09-29T17:04:54;99085.81;;;12.26;97.11